Time;durP1;ratioP1;P1;durP2;ratioP2;P2;SDS_P1;SDS_P2;PMS_P1;PMS_P2;Temp;Humidity;BMP_temperature;BMP_pressure;BME280_temperature;BME280_humidity;BME280_pressure;Samples;Min_cycle;Max_cycle;Signal;HPM_P1;HPM_P2
2023/01/02 00:00:18;;;;;;;;;;;10.40;99.90;;;;;;5036303;28;20000;-67
2023/01/02 00:02:43;;;;;;;;;;;10.50;99.90;;;;;;5050571;28;19917;-67
2023/01/02 00:05:09;;;;;;;;;;;10.40;99.90;;;;;;5054153;28;19908;-67
2023/01/02 00:07:35;;;;;;;;;;;10.40;99.90;;;;;;5066553;28;20393;-67
2023/01/02 00:10:00;;;;;;;;;;;10.40;99.90;;;;;;5073875;28;19991;-67
2023/01/02 00:12:26;;;;;;;;;;;10.40;99.90;;;;;;5003508;28;2009228;-68
2023/01/02 00:14:52;;;;;;;;;;;10.40;99.90;;;;;;5075755;28;19914;-69
2023/01/02 00:17:18;;;;;;;;;;;10.40;99.90;;;;;;5075096;28;20285;-69
2023/01/02 00:19:43;;;;;;;;;;;10.40;99.90;;;;;;5062869;28;20230;-69
2023/01/02 00:22:09;;;;;;;;;;;10.30;99.90;;;;;;5055120;28;19931;-69
2023/01/02 00:24:35;;;;;;;;;;;10.50;99.90;;;;;;5053632;28;19909;-69
2023/01/02 00:27:00;;;;;;;;;;;10.40;99.90;;;;;;5055083;28;20350;-69
2023/01/02 00:29:26;;;;;;;;;;;10.40;99.90;;;;;;5054805;28;19916;-69
2023/01/02 00:31:51;;;;;;;;;;;10.40;99.90;;;;;;5054876;28;19916;-69
2023/01/02 00:34:17;;;;;;;;;;;10.50;99.90;;;;;;5054776;28;20308;-69
2023/01/02 00:36:42;;;;;;;;;;;10.40;99.90;;;;;;5055017;28;19920;-69
2023/01/02 00:39:08;;;;;;;;;;;10.30;99.90;;;;;;5054652;28;19996;-69
2023/01/02 00:41:33;;;;;;;;;;;10.30;99.90;;;;;;5054813;28;19919;-69
2023/01/02 00:43:59;;;;;;;;;;;10.50;99.90;;;;;;5054720;28;19909;-69
2023/01/02 00:46:24;;;;;;;;;;;10.30;99.90;;;;;;5054545;28;20431;-69
2023/01/02 00:48:50;;;;;;;;;;;10.30;99.90;;;;;;5054409;28;19908;-69
2023/01/02 00:51:16;;;;;;;;;;;10.20;99.90;;;;;;5054619;28;19942;-69
2023/01/02 00:53:41;;;;;;;;;;;10.20;99.90;;;;;;5054394;28;19967;-69
2023/01/02 00:56:07;;;;;;;;;;;10.20;99.90;;;;;;5065415;28;19916;-69
2023/01/02 00:58:32;;;;;;;;;;;10.10;99.90;;;;;;5074293;28;19908;-69
2023/01/02 01:00:58;;;;;;;;;;;10.20;99.90;;;;;;5057240;28;19909;-69
2023/01/02 01:03:24;;;;;;;;;;;10.20;99.90;;;;;;5040970;28;19913;-69
2023/01/02 01:05:49;;;;;;;;;;;10.10;99.90;;;;;;5052804;28;19916;-69
2023/01/02 01:08:15;;;;;;;;;;;10.10;99.90;;;;;;5052432;28;19942;-69
2023/01/02 01:10:40;;;;;;;;;;;10.10;99.90;;;;;;5051539;28;20348;-69
2023/01/02 01:13:06;;;;;;;;;;;10.20;99.90;;;;;;5073050;28;19916;-69
2023/01/02 01:15:32;;;;;;;;;;;10.10;99.90;;;;;;5073630;28;19948;-69
2023/01/02 01:17:57;;;;;;;;;;;10.10;99.90;;;;;;5074185;28;19912;-69
2023/01/02 01:20:23;;;;;;;;;;;10.10;99.90;;;;;;5073512;28;20280;-69
2023/01/02 01:22:48;;;;;;;;;;;10.20;99.90;;;;;;5073452;28;20369;-69
2023/01/02 01:25:14;;;;;;;;;;;10.10;99.90;;;;;;5073785;28;20024;-69
2023/01/02 01:27:40;;;;;;;;;;;10.10;99.90;;;;;;5073784;28;19913;-69
2023/01/02 01:30:06;;;;;;;;;;;10.10;99.90;;;;;;5073084;28;19920;-69
2023/01/02 01:32:31;;;;;;;;;;;10.10;99.90;;;;;;5056552;28;19924;-69
2023/01/02 01:34:57;;;;;;;;;;;10.00;99.90;;;;;;5073755;28;19954;-69
2023/01/02 01:37:22;;;;;;;;;;;10.00;99.90;;;;;;5073282;28;19959;-69
2023/01/02 01:39:48;;;;;;;;;;;10.00;99.90;;;;;;5073701;28;20331;-69
2023/01/02 01:42:14;;;;;;;;;;;10.10;99.90;;;;;;5071710;28;19917;-69
2023/01/02 01:45:06;;;;;;;;;;;10.10;99.90;;;;;;5071781;28;19947;-69
2023/01/02 01:47:38;;;;;;;;;;;10.00;99.90;;;;;;5067721;28;19912;-68
2023/01/02 01:50:03;;;;;;;;;;;10.00;99.90;;;;;;5073163;28;19912;-69
2023/01/02 01:52:30;;;;;;;;;;;10.00;99.90;;;;;;5056157;28;19943;-69
2023/01/02 01:55:08;;;;;;;;;;;9.90;99.90;;;;;;5073012;28;19919;-69
2023/01/02 01:57:35;;;;;;;;;;;9.80;99.90;;;;;;5072958;28;19948;-69
2023/01/02 02:00:01;;;;;;;;;;;9.80;99.90;;;;;;5072805;28;19919;-69
2023/01/02 02:02:28;;;;;;;;;;;9.90;99.90;;;;;;5063720;28;19912;-69
2023/01/02 02:04:55;;;;;;;;;;;9.90;99.90;;;;;;5072820;28;20373;-69
2023/01/02 02:07:21;;;;;;;;;;;9.90;99.90;;;;;;5072719;28;19912;-69
2023/01/02 02:09:52;;;;;;;;;;;9.90;99.90;;;;;;5072238;28;19957;-69
2023/01/02 02:12:18;;;;;;;;;;;10.00;99.90;;;;;;5054966;28;20524;-69
2023/01/02 02:14:43;;;;;;;;;;;10.00;99.90;;;;;;5072342;28;19920;-69
2023/01/02 02:17:27;;;;;;;;;;;9.90;99.90;;;;;;5074034;28;19919;-69
2023/01/02 02:19:55;;;;;;;;;;;9.90;99.90;;;;;;5072657;28;19912;-69
2023/01/02 02:22:40;;;;;;;;;;;10.00;99.90;;;;;;5072626;28;19913;-69
2023/01/02 02:25:08;;;;;;;;;;;9.90;99.90;;;;;;5074018;28;19913;-69
2023/01/02 02:27:45;;;;;;;;;;;9.90;99.90;;;;;;5072764;28;19958;-69
2023/01/02 02:30:14;;;;;;;;;;;9.80;99.90;;;;;;5073163;28;19912;-69
2023/01/02 02:32:46;;;;;;;;;;;9.90;99.90;;;;;;5058289;28;19927;-69
2023/01/02 02:35:20;;;;;;;;;;;9.80;99.90;;;;;;5066818;28;20416;-69
2023/01/02 02:37:51;;;;;;;;;;;9.80;99.90;;;;;;5072572;28;19913;-69
2023/01/02 02:40:23;;;;;;;;;;;9.80;99.90;;;;;;5073523;28;19909;-69
2023/01/02 02:42:48;;;;;;;;;;;10.00;99.90;;;;;;5073549;28;19965;-69
2023/01/02 02:45:29;;;;;;;;;;;9.90;99.90;;;;;;5072355;28;20373;-69
2023/01/02 02:48:14;;;;;;;;;;;9.90;99.90;;;;;;5073434;28;19950;-69
2023/01/02 02:50:40;;;;;;;;;;;10.00;99.90;;;;;;5054442;28;19912;-69
2023/01/02 02:53:09;;;;;;;;;;;10.10;99.90;;;;;;5080316;28;19919;-69
2023/01/02 02:55:38;;;;;;;;;;;10.00;99.90;;;;;;5090408;28;19912;-69
2023/01/02 02:58:04;;;;;;;;;;;10.00;99.90;;;;;;5075509;28;20015;-69
2023/01/02 03:00:30;;;;;;;;;;;10.00;99.90;;;;;;5072011;28;19913;-69
2023/01/02 03:02:55;;;;;;;;;;;10.00;99.90;;;;;;5072199;28;19915;-69
2023/01/02 03:05:27;;;;;;;;;;;10.00;99.90;;;;;;5072215;28;19920;-69
2023/01/02 03:07:56;;;;;;;;;;;10.10;99.90;;;;;;5087732;28;19915;-69
2023/01/02 03:10:21;;;;;;;;;;;10.20;99.90;;;;;;5082586;28;19954;-69
2023/01/02 03:12:50;;;;;;;;;;;10.30;99.90;;;;;;5071654;28;20006;-69
2023/01/02 03:15:23;;;;;;;;;;;10.30;99.90;;;;;;5071521;28;19920;-69
2023/01/02 03:17:48;;;;;;;;;;;10.30;99.90;;;;;;5071961;28;19970;-69
2023/01/02 03:20:17;;;;;;;;;;;10.30;99.90;;;;;;5071847;28;19948;-69
2023/01/02 03:22:45;;;;;;;;;;;10.20;99.90;;;;;;5071848;28;19995;-69
2023/01/02 03:25:12;;;;;;;;;;;10.10;99.90;;;;;;5071971;28;19912;-69
2023/01/02 03:27:40;;;;;;;;;;;10.10;99.90;;;;;;5074147;28;19913;-69
2023/01/02 03:30:07;;;;;;;;;;;10.10;99.90;;;;;;5075976;28;19995;-69
2023/01/02 03:32:39;;;;;;;;;;;10.10;99.90;;;;;;5074923;28;19919;-69
2023/01/02 03:35:09;;;;;;;;;;;10.00;99.90;;;;;;5074965;28;19999;-69
2023/01/02 03:37:36;;;;;;;;;;;10.00;99.90;;;;;;5076192;28;19908;-69
2023/01/02 03:40:06;;;;;;;;;;;10.00;99.90;;;;;;5075749;28;19915;-69
2023/01/02 03:42:34;;;;;;;;;;;10.10;99.90;;;;;;5057857;28;19960;-69
2023/01/02 03:45:03;;;;;;;;;;;10.00;99.90;;;;;;5075834;28;19908;-69
2023/01/02 03:47:45;;;;;;;;;;;10.00;99.90;;;;;;5075288;28;19909;-69
2023/01/02 03:50:14;;;;;;;;;;;10.00;99.90;;;;;;5075413;28;19912;-69
2023/01/02 03:52:39;;;;;;;;;;;10.20;99.90;;;;;;5075263;28;19917;-69
2023/01/02 03:55:06;;;;;;;;;;;10.10;99.90;;;;;;5061483;28;19909;-69
2023/01/02 03:57:31;;;;;;;;;;;10.20;99.90;;;;;;5075388;28;19947;-69
2023/01/02 03:59:57;;;;;;;;;;;10.20;99.90;;;;;;5075077;28;19951;-69
2023/01/02 04:02:25;;;;;;;;;;;10.40;99.90;;;;;;5073614;28;19956;-69
2023/01/02 04:04:55;;;;;;;;;;;10.40;99.90;;;;;;5074863;28;20395;-69
2023/01/02 04:07:36;;;;;;;;;;;10.30;99.90;;;;;;5074995;28;19917;-69
2023/01/02 04:10:02;;;;;;;;;;;10.30;99.90;;;;;;5075586;28;19913;-69
2023/01/02 04:12:30;;;;;;;;;;;10.40;99.90;;;;;;5074713;28;19962;-68
2023/01/02 04:14:58;;;;;;;;;;;10.40;99.90;;;;;;5074156;28;19916;-69
2023/01/02 04:17:25;;;;;;;;;;;10.30;99.90;;;;;;5075125;28;19912;-70
2023/01/02 04:19:54;;;;;;;;;;;10.40;99.90;;;;;;5074844;28;19935;-69
2023/01/02 04:22:30;;;;;;;;;;;10.40;99.90;;;;;;5060854;28;19919;-68
2023/01/02 04:25:07;;;;;;;;;;;10.40;99.90;;;;;;5057001;28;20341;-69
2023/01/02 04:27:39;;;;;;;;;;;10.30;99.90;;;;;;5074814;28;19965;-69
2023/01/02 04:30:05;;;;;;;;;;;10.20;99.90;;;;;;5074532;28;19920;-69
2023/01/02 04:32:37;;;;;;;;;;;10.20;99.90;;;;;;5074609;28;19913;-69
2023/01/02 04:35:08;;;;;;;;;;;10.20;99.90;;;;;;5075033;28;20020;-69
2023/01/02 04:37:35;;;;;;;;;;;10.20;99.90;;;;;;5074348;28;20007;-69
2023/01/02 04:40:12;;;;;;;;;;;10.10;99.90;;;;;;5074637;28;19909;-69
2023/01/02 04:42:38;;;;;;;;;;;10.20;99.90;;;;;;5073872;28;19913;-69
2023/01/02 04:45:04;;;;;;;;;;;10.10;99.90;;;;;;5073811;28;19940;-69
2023/01/02 04:47:29;;;;;;;;;;;10.10;99.90;;;;;;5074154;28;19912;-69
2023/01/02 04:49:55;;;;;;;;;;;10.10;99.90;;;;;;5074158;28;19917;-69
2023/01/02 04:52:21;;;;;;;;;;;;;;;;;;5074087;28;19916;-66
2023/01/02 04:54:46;;;;;;;;;;;10.10;99.90;;;;;;5074546;28;19919;-70
2023/01/02 04:57:12;;;;;;;;;;;;;;;;;;5074467;28;20471;-69
2023/01/02 04:59:38;;;;;;;;;;;;;;;;;;5074413;28;20280;-70
2023/01/02 05:02:04;;;;;;;;;;;;;;;;;;5073971;28;19913;-69
2023/01/02 05:04:30;;;;;;;;;;;;;;;;;;5074285;28;19915;-69
2023/01/02 05:06:56;;;;;;;;;;;;;;;;;;5074593;28;20011;-69
2023/01/02 05:09:22;;;;;;;;;;;;;;;;;;5074002;28;20003;-69
2023/01/02 05:11:48;;;;;;;;;;;;;;;;;;5074128;28;20019;-69
2023/01/02 05:14:14;;;;;;;;;;;;;;;;;;5074092;28;20444;-69
2023/01/02 05:16:39;;;;;;;;;;;;;;;;;;5074126;28;19954;-69
2023/01/02 05:19:05;;;;;;;;;;;;;;;;;;5055873;28;19908;-70
2023/01/02 05:24:16;;;;;;;;;;;;;;;;;;5074356;28;19915;-69
2023/01/02 05:26:42;;;;;;;;;;;;;;;;;;5074153;28;19912;-69
2023/01/02 05:29:08;;;;;;;;;;;;;;;;;;5073703;28;19951;-70
2023/01/02 05:31:34;;;;;;;;;;;;;;;;;;5073842;28;19912;-70
2023/01/02 05:34:00;;;;;;;;;;;;;;;;;;5073507;28;20400;-69
2023/01/02 05:36:25;;;;;;;;;;;;;;;;;;5073721;28;19924;-69
2023/01/02 05:38:51;;;;;;;;;;;;;;;;;;5073505;28;19908;-69
2023/01/02 05:41:17;;;;;;;;;;;;;;;;;;5055717;28;19915;-69
2023/01/02 05:43:43;;;;;;;;;;;;;;;;;;5073475;28;19908;-69
2023/01/02 05:46:09;;;;;;;;;;;;;;;;;;5073593;28;19908;-69
2023/01/02 05:48:35;;;;;;;;;;;;;;;;;;5073126;28;20302;-69
2023/01/02 05:51:01;;;;;;;;;;;;;;;;;;5072936;28;19909;-69
2023/01/02 05:53:27;;;;;;;;;;;;;;;;;;5073594;28;19920;-69
2023/01/02 05:55:53;;;;;;;;;;;;;;;;;;5073405;28;19908;-69
2023/01/02 05:58:19;;;;;;;;;;;;;;;;;;5072952;28;19908;-69
2023/01/02 06:00:45;;;;;;;;;;;;;;;;;;5073173;28;19920;-69
2023/01/02 06:03:11;;;;;;;;;;;;;;;;;;5055034;28;20431;-69
2023/01/02 06:05:36;;;;;;;;;;;;;;;;;;5073107;28;19915;-69
2023/01/02 06:08:02;;;;;;;;;;;;;;;;;;5073032;28;19908;-70
2023/01/02 06:10:28;;;;;;;;;;;;;;;;;;5073041;28;19908;-70
2023/01/02 06:12:54;;;;;;;;;;;;;;;;;;5073122;28;19920;-69
2023/01/02 06:15:20;;;;;;;;;;;;;;;;;;5072976;28;19912;-69
2023/01/02 06:17:46;;;;;;;;;;;;;;;;;;5072833;28;19912;-69
2023/01/02 06:20:12;;;;;;;;;;;;;;;;;;5072687;28;20339;-69
2023/01/02 06:22:38;;;;;;;;;;;;;;;;;;5072775;28;19908;-69
2023/01/02 06:25:04;;;;;;;;;;;;;;;;;;5072752;28;19916;-69
2023/01/02 06:27:30;;;;;;;;;;;;;;;;;;5072713;28;19916;-69
2023/01/02 06:29:56;;;;;;;;;;;;;;;;;;5072569;28;19908;-70
2023/01/02 06:32:22;;;;;;;;;;;;;;;;;;5054601;28;19909;-69
2023/01/02 06:34:48;;;;;;;;;;;;;;;;;;5073026;28;19940;-69
2023/01/02 06:37:13;;;;;;;;;;;;;;;;;;5072565;28;20387;-69
2023/01/02 06:39:39;;;;;;;;;;;;;;;;;;5072423;28;19943;-69
2023/01/02 06:42:05;;;;;;;;;;;;;;;;;;5072494;28;19915;-69
2023/01/02 06:44:31;;;;;;;;;;;;;;;;;;5072340;28;19916;-69
2023/01/02 06:46:57;;;;;;;;;;;;;;;;;;5072329;28;19908;-70
2023/01/02 06:49:23;;;;;;;;;;;;;;;;;;5072194;28;20392;-70
2023/01/02 06:51:49;;;;;;;;;;;;;;;;;;5072641;28;19908;-69
2023/01/02 06:54:15;;;;;;;;;;;;;;;;;;5072153;28;19920;-69
2023/01/02 06:56:41;;;;;;;;;;;;;;;;;;5072251;28;19908;-69
2023/01/02 06:59:07;;;;;;;;;;;;;;;;;;5072066;28;19922;-70
2023/01/02 07:01:33;;;;;;;;;;;;;;;;;;5072080;28;19991;-69
2023/01/02 07:03:59;;;;;;;;;;;;;;;;;;5071550;28;19913;-69
2023/01/02 07:06:26;;;;;;;;;;;;;;;;;;5071063;28;19916;-69
2023/01/02 07:08:52;;;;;;;;;;;;;;;;;;5072064;28;19909;-69
2023/01/02 07:11:18;;;;;;;;;;;;;;;;;;5070767;28;19959;-69
2023/01/02 07:13:44;;;;;;;;;;;;;;;;;;5071239;28;19920;-70
2023/01/02 07:16:10;;;;;;;;;;;;;;;;;;5071987;28;20343;-69
2023/01/02 07:18:36;;;;;;;;;;;;;;;;;;5071872;28;19909;-70
2023/01/02 07:21:02;;;;;;;;;;;;;;;;;;5072079;28;19924;-70
2023/01/02 07:23:28;;;;;;;;;;;;;;;;;;5072297;28;19962;-69
2023/01/02 07:25:53;;;;;;;;;;;;;;;;;;5072110;28;20299;-69
2023/01/02 07:28:19;;;;;;;;;;;;;;;;;;5071751;28;20373;-70
2023/01/02 07:30:45;;;;;;;;;;;;;;;;;;5071930;28;20381;-70
2023/01/02 07:33:11;;;;;;;;;;;;;;;;;;5071811;28;19912;-70
2023/01/02 07:35:37;;;;;;;;;;;;;;;;;;5053982;28;19909;-70
2023/01/02 07:38:03;;;;;;;;;;;;;;;;;;5071910;28;19909;-70
2023/01/02 07:40:29;;;;;;;;;;;;;;;;;;5071647;28;19909;-69
2023/01/02 07:42:55;;;;;;;;;;;;;;;;;;5071702;28;19915;-70
2023/01/02 07:45:21;;;;;;;;;;;;;;;;;;5071745;28;19915;-70
2023/01/02 07:47:47;;;;;;;;;;;;;;;;;;5071816;28;19944;-70
2023/01/02 07:50:13;;;;;;;;;;;;;;;;;;5071622;28;20332;-70
2023/01/02 07:52:38;;;;;;;;;;;;;;;;;;5071603;28;19909;-70
2023/01/02 07:55:04;;;;;;;;;;;;;;;;;;5071717;28;19919;-70
2023/01/02 07:57:30;;;;;;;;;;;;;;;;;;5071640;28;19923;-70
2023/01/02 07:59:56;;;;;;;;;;;;;;;;;;5071423;28;19908;-70
2023/01/02 08:02:22;;;;;;;;;;;;;;;;;;5071606;28;19962;-70
2023/01/02 08:04:49;;;;;;;;;;;;;;;;;;5071918;28;20281;-69
2023/01/02 08:07:14;;;;;;;;;;;;;;;;;;5071633;28;19912;-70
2023/01/02 08:09:40;;;;;;;;;;;;;;;;;;5071375;28;20333;-70
2023/01/02 08:12:06;;;;;;;;;;;;;;;;;;5053517;28;19915;-69
2023/01/02 08:14:32;;;;;;;;;;;;;;;;;;5056552;28;19916;-70
2023/01/02 08:16:58;;;;;;;;;;;;;;;;;;5075281;28;19908;-70
2023/01/02 08:19:24;;;;;;;;;;;;;;;;;;5075040;28;20007;-69
2023/01/02 08:21:50;;;;;;;;;;;;;;;;;;5075204;28;19944;-69
2023/01/02 08:24:16;;;;;;;;;;;;;;;;;;5075060;28;19948;-70
2023/01/02 08:26:42;;;;;;;;;;;;;;;;;;5056956;28;19909;-69
2023/01/02 08:29:08;;;;;;;;;;;;;;;;;;5074875;28;19912;-69
2023/01/02 08:31:34;;;;;;;;;;;;;;;;;;5075003;28;19909;-70
2023/01/02 08:34:00;;;;;;;;;;;;;;;;;;5074826;28;19919;-70
2023/01/02 08:36:26;;;;;;;;;;;;;;;;;;5074867;28;19909;-70
2023/01/02 08:38:51;;;;;;;;;;;;;;;;;;5074656;28;20281;-70
2023/01/02 08:41:17;;;;;;;;;;;;;;;;;;5074741;28;19936;-69
2023/01/02 08:43:43;;;;;;;;;;;;;;;;;;5074632;28;19908;-70
2023/01/02 08:46:09;;;;;;;;;;;;;;;;;;5074905;28;19915;-67
2023/01/02 08:48:35;;;;;;;;;;;;;;;;;;5074518;28;19909;-69
2023/01/02 08:51:01;;;;;;;;;;;;;;;;;;5074666;28;20329;-69
2023/01/02 08:53:27;;;;;;;;;;;11.30;99.90;;;;;;5056407;28;19995;-69
2023/01/02 08:55:52;;;;;;;;;;;11.30;99.90;;;;;;5074422;28;19916;-67
2023/01/02 08:58:18;;;;;;;;;;;11.30;99.90;;;;;;5074305;28;19912;-67
2023/01/02 09:00:43;;;;;;;;;;;11.30;99.90;;;;;;5074432;28;20323;-67
2023/01/02 09:03:09;;;;;;;;;;;11.30;99.90;;;;;;5074426;28;19915;-67
2023/01/02 09:05:34;;;;;;;;;;;11.30;99.90;;;;;;5074706;28;19915;-67
2023/01/02 09:08:01;;;;;;;;;;;11.30;99.90;;;;;;5074307;28;19912;-67
2023/01/02 09:10:26;;;;;;;;;;;11.30;99.90;;;;;;5074215;28;19908;-67
2023/01/02 09:12:52;;;;;;;;;;;11.30;99.90;;;;;;5073947;28;19920;-67
2023/01/02 09:15:17;;;;;;;;;;;11.40;99.90;;;;;;5074240;28;19956;-67
2023/01/02 09:17:43;;;;;;;;;;;11.40;99.90;;;;;;5074192;28;19938;-67
2023/01/02 09:20:09;;;;;;;;;;;11.40;99.90;;;;;;5073928;28;19939;-67
2023/01/02 09:22:35;;;;;;;;;;;11.40;99.90;;;;;;5073930;28;19923;-67
2023/01/02 09:25:00;;;;;;;;;;;11.30;99.90;;;;;;5072772;28;20391;-67
2023/01/02 09:27:26;;;;;;;;;;;11.40;99.90;;;;;;5073960;28;19947;-67
2023/01/02 09:29:52;;;;;;;;;;;11.40;99.90;;;;;;5073738;28;20392;-67
2023/01/02 09:32:18;;;;;;;;;;;11.40;99.90;;;;;;5073817;28;19908;-67
2023/01/02 09:34:49;;;;;;;;;;;11.40;99.90;;;;;;5073627;28;19916;-67
2023/01/02 09:37:15;;;;;;;;;;;11.40;99.90;;;;;;5073710;28;19913;-67
2023/01/02 09:39:40;;;;;;;;;;;11.40;99.90;;;;;;5073336;28;20388;-67
2023/01/02 09:42:12;;;;;;;;;;;11.40;99.90;;;;;;5073662;28;19909;-67
2023/01/02 09:44:41;;;;;;;;;;;11.30;99.90;;;;;;5073607;28;19916;-67
2023/01/02 09:47:09;;;;;;;;;;;11.30;99.90;;;;;;5073843;28;19924;-67
2023/01/02 09:49:55;;;;;;;;;;;11.40;99.90;;;;;;5073709;28;19913;-67
2023/01/02 09:52:29;;;;;;;;;;;11.40;99.90;;;;;;5065648;28;19916;-67
2023/01/02 09:54:55;;;;;;;;;;;11.30;99.90;;;;;;5073411;28;19994;-67
2023/01/02 09:57:20;;;;;;;;;;;11.10;99.90;;;;;;5073369;28;19915;-67
2023/01/02 09:59:46;;;;;;;;;;;11.00;99.90;;;;;;5071871;28;20003;-67
2023/01/02 10:02:19;;;;;;;;;;;11.00;99.90;;;;;;5073241;28;19915;-67
2023/01/02 10:04:54;;;;;;;;;;;11.00;99.90;;;;;;5073003;28;19997;-67
2023/01/02 10:07:25;;;;;;;;;;;11.00;99.90;;;;;;5073117;28;19912;-67
2023/01/02 10:10:02;;;;;;;;;;;11.00;99.90;;;;;;5072992;28;19915;-67
2023/01/02 10:12:37;;;;;;;;;;;11.00;99.90;;;;;;5072988;28;19997;-67
2023/01/02 10:15:05;;;;;;;;;;;10.90;99.90;;;;;;5073030;28;19912;-67
2023/01/02 10:17:33;;;;;;;;;;;11.00;99.90;;;;;;5072945;28;19999;-67
2023/01/02 10:20:17;;;;;;;;;;;11.00;99.90;;;;;;5072781;28;19912;-67
2023/01/02 10:22:46;;;;;;;;;;;11.00;99.90;;;;;;5072804;28;19978;-67
2023/01/02 10:25:15;;;;;;;;;;;11.10;99.90;;;;;;5054889;28;19913;-67
2023/01/02 10:27:53;;;;;;;;;;;11.10;99.90;;;;;;5071367;28;19916;-67
2023/01/02 10:30:21;;;;;;;;;;;11.20;99.90;;;;;;5072588;28;19923;-67
2023/01/02 10:33:06;;;;;;;;;;;11.30;99.90;;;;;;5054611;28;19968;-67
2023/01/02 10:35:39;;;;;;;;;;;11.30;99.90;;;;;;5064742;28;19999;-67
2023/01/02 10:38:05;;;;;;;;;;;11.30;99.90;;;;;;5072317;28;19923;-67
2023/01/02 10:40:32;;;;;;;;;;;11.20;99.90;;;;;;5072540;28;20327;-67
2023/01/02 10:42:58;;;;;;;;;;;11.20;99.90;;;;;;5072487;28;19916;-67
2023/01/02 10:45:23;;;;;;;;;;;11.20;99.90;;;;;;5072561;28;19908;-67
2023/01/02 10:47:49;;;;;;;;;;;11.20;99.90;;;;;;5072517;28;19915;-68
2023/01/02 10:50:20;;;;;;;;;;;11.20;99.90;;;;;;5072254;28;19909;-67
2023/01/02 10:52:50;;;;;;;;;;;11.30;99.90;;;;;;5072072;28;19913;-67
2023/01/02 10:55:37;;;;;;;;;;;11.20;99.90;;;;;;5072215;28;20384;-67
2023/01/02 10:58:04;;;;;;;;;;;11.30;99.90;;;;;;5072257;28;19963;-67
2023/01/02 11:00:30;;;;;;;;;;;11.30;99.90;;;;;;5072024;28;20003;-68
2023/01/02 11:03:16;;;;;;;;;;;11.40;99.90;;;;;;5072094;28;20349;-67
2023/01/02 11:05:49;;;;;;;;;;;11.50;99.90;;;;;;5054321;28;19963;-67
2023/01/02 11:08:18;;;;;;;;;;;11.50;99.90;;;;;;5072172;28;19919;-67
2023/01/02 11:10:44;;;;;;;;;;;11.70;99.90;;;;;;5071667;28;20446;-67
2023/01/02 11:13:12;;;;;;;;;;;11.80;99.90;;;;;;5068691;28;20277;-67
2023/01/02 11:15:52;;;;;;;;;;;11.70;99.90;;;;;;5069009;28;20289;-67
2023/01/02 11:18:27;;;;;;;;;;;11.70;99.90;;;;;;5053963;28;19912;-67
2023/01/02 11:21:02;;;;;;;;;;;11.70;99.90;;;;;;5071864;28;20011;-67
2023/01/02 11:23:30;;;;;;;;;;;11.70;99.90;;;;;;5071825;28;19913;-67
2023/01/02 11:25:55;;;;;;;;;;;11.60;99.90;;;;;;5071149;28;19908;-67
2023/01/02 11:28:26;;;;;;;;;;;11.60;99.90;;;;;;5070998;28;20407;-67
2023/01/02 11:30:59;;;;;;;;;;;11.70;99.90;;;;;;5071625;28;19908;-67
2023/01/02 11:33:25;;;;;;;;;;;11.60;99.90;;;;;;5070740;28;20398;-67
2023/01/02 11:35:56;;;;;;;;;;;11.50;99.90;;;;;;5071775;28;20369;-67
2023/01/02 11:38:26;;;;;;;;;;;11.60;99.90;;;;;;5071441;28;19909;-67
2023/01/02 11:40:55;;;;;;;;;;;11.60;99.90;;;;;;5071588;28;19966;-67
2023/01/02 11:46:11;;;;;;;;;;;11.60;99.90;;;;;;5060264;28;20415;-67
2023/01/02 11:48:37;;;;;;;;;;;11.70;99.90;;;;;;5072473;28;19908;-67
2023/01/02 11:51:02;;;;;;;;;;;11.70;99.90;;;;;;5059556;28;20350;-67
2023/01/02 11:53:32;;;;;;;;;;;11.80;99.90;;;;;;5075082;28;19920;-67
2023/01/02 11:56:30;;;;;;;;;;;11.80;99.90;;;;;;5075373;28;19913;-67
2023/01/02 11:58:56;;;;;;;;;;;11.80;99.90;;;;;;5051926;28;19931;-67
2023/01/02 12:01:33;;;;;;;;;;;11.70;99.90;;;;;;5074910;28;20385;-67
2023/01/02 12:03:59;;;;;;;;;;;11.70;99.90;;;;;;5075452;28;19916;-67
2023/01/02 12:06:34;;;;;;;;;;;11.60;99.90;;;;;;5075236;28;19908;-67
2023/01/02 12:09:03;;;;;;;;;;;11.60;99.90;;;;;;5075385;28;19912;-67
2023/01/02 12:11:39;;;;;;;;;;;11.70;99.90;;;;;;5075076;28;19916;-67
2023/01/02 12:14:08;;;;;;;;;;;11.70;99.90;;;;;;5075257;28;20384;-67
2023/01/02 12:17:00;;;;;;;;;;;11.70;99.90;;;;;;5074443;28;20377;-67
2023/01/02 12:19:25;;;;;;;;;;;11.70;99.90;;;;;;5052740;28;19909;-67
2023/01/02 12:22:11;;;;;;;;;;;11.70;99.90;;;;;;5055145;28;19916;-67
2023/01/02 12:24:36;;;;;;;;;;;11.80;99.90;;;;;;5054796;28;19971;-67
2023/01/02 12:27:21;;;;;;;;;;;11.80;99.90;;;;;;5072801;28;19916;-67
2023/01/02 12:29:46;;;;;;;;;;;11.90;99.90;;;;;;5072447;28;19920;-67
2023/01/02 12:32:18;;;;;;;;;;;11.90;99.90;;;;;;5074840;28;19909;-67
2023/01/02 12:34:46;;;;;;;;;;;11.80;99.90;;;;;;5074533;28;20440;-67
2023/01/02 12:37:24;;;;;;;;;;;11.80;99.90;;;;;;5069451;28;19935;-67
2023/01/02 12:39:52;;;;;;;;;;;11.90;99.90;;;;;;5073945;28;19912;-67
2023/01/02 12:42:28;;;;;;;;;;;11.80;99.90;;;;;;5054761;28;19915;-67
2023/01/02 12:44:55;;;;;;;;;;;11.70;99.90;;;;;;5070417;28;19919;-67
2023/01/02 12:47:34;;;;;;;;;;;11.70;99.90;;;;;;5074090;28;19920;-67
2023/01/02 12:50:03;;;;;;;;;;;11.60;99.90;;;;;;5056469;28;19962;-67
2023/01/02 12:52:44;;;;;;;;;;;11.70;99.90;;;;;;5074582;28;19908;-67
2023/01/02 12:55:17;;;;;;;;;;;11.70;99.90;;;;;;5074032;28;19924;-67
2023/01/02 12:57:53;;;;;;;;;;;11.70;99.90;;;;;;5074084;28;19912;-67
2023/01/02 13:00:24;;;;;;;;;;;11.80;99.90;;;;;;5073795;28;19935;-67
2023/01/02 13:03:19;;;;;;;;;;;11.90;99.90;;;;;;5074027;28;20373;-67
2023/01/02 13:06:17;;;;;;;;;;;12.00;99.90;;;;;;5036847;28;20015;-67
2023/01/02 13:08:42;;;;;;;;;;;12.00;99.90;;;;;;5011722;28;19913;-67
2023/01/02 13:11:08;;;;;;;;;;;11.90;99.90;;;;;;5054478;28;19916;-67
2023/01/02 13:13:35;;;;;;;;;;;11.80;99.90;;;;;;5047665;28;19923;-67
2023/01/02 13:16:01;;;;;;;;;;;11.80;99.90;;;;;;5071984;28;19912;-67
2023/01/02 13:18:46;;;;;;;;;;;11.90;99.90;;;;;;5074098;28;19927;-68
2023/01/02 13:21:16;;;;;;;;;;;11.90;99.90;;;;;;5074304;28;20373;-67
2023/01/02 13:23:45;;;;;;;;;;;11.90;99.90;;;;;;5073936;28;19962;-67
2023/01/02 13:26:13;;;;;;;;;;;11.90;99.90;;;;;;5073995;28;19915;-67
2023/01/02 13:28:42;;;;;;;;;;;11.80;99.90;;;;;;5073557;28;19913;-67
2023/01/02 13:31:10;;;;;;;;;;;11.90;99.90;;;;;;5073777;28;19944;-67
2023/01/02 13:33:38;;;;;;;;;;;11.90;99.90;;;;;;5073620;28;19912;-67
2023/01/02 13:36:13;;;;;;;;;;;11.90;99.90;;;;;;5073969;28;19909;-67
2023/01/02 13:38:39;;;;;;;;;;;11.90;99.90;;;;;;5072965;28;19927;-67
2023/01/02 13:41:05;;;;;;;;;;;11.90;99.90;;;;;;5073183;28;20385;-68
2023/01/02 13:43:31;;;;;;;;;;;11.90;99.90;;;;;;5073388;28;19916;-67
2023/01/02 13:45:58;;;;;;;;;;;11.90;99.90;;;;;;5073328;28;19966;-67
2023/01/02 13:48:36;;;;;;;;;;;11.90;99.90;;;;;;5073128;28;20004;-67
2023/01/02 13:51:12;;;;;;;;;;;11.80;99.90;;;;;;5055531;28;19961;-67
2023/01/02 13:53:45;;;;;;;;;;;11.70;99.90;;;;;;5073113;28;20014;-67
2023/01/02 13:56:12;;;;;;;;;;;11.60;99.90;;;;;;5073155;28;19912;-67
2023/01/02 13:58:39;;;;;;;;;;;11.70;99.90;;;;;;5072894;28;19966;-67
2023/01/02 14:01:31;;;;;;;;;;;11.80;99.90;;;;;;5066854;28;20426;-67
2023/01/02 14:04:05;;;;;;;;;;;11.70;99.90;;;;;;5056901;28;20383;-67
2023/01/02 14:06:33;;;;;;;;;;;11.80;99.90;;;;;;5073024;28;19943;-67
2023/01/02 14:09:04;;;;;;;;;;;11.80;99.90;;;;;;5072706;28;20014;-67
2023/01/02 14:11:41;;;;;;;;;;;11.70;99.90;;;;;;5072467;28;19982;-67
2023/01/02 14:14:11;;;;;;;;;;;11.80;99.90;;;;;;5086901;28;19924;-67
2023/01/02 14:16:40;;;;;;;;;;;11.80;99.90;;;;;;5080100;28;19919;-67
2023/01/02 14:19:11;;;;;;;;;;;11.80;99.90;;;;;;5072597;28;19912;-67
2023/01/02 14:21:39;;;;;;;;;;;11.80;99.90;;;;;;5072894;28;19912;-67
2023/01/02 14:24:05;;;;;;;;;;;11.90;99.90;;;;;;5090366;28;19924;-67
2023/01/02 14:26:36;;;;;;;;;;;11.80;99.90;;;;;;5074858;28;19908;-67
2023/01/02 14:29:11;;;;;;;;;;;11.70;99.90;;;;;;5092551;28;19912;-67
2023/01/02 14:31:37;;;;;;;;;;;11.70;99.90;;;;;;5079749;28;19918;-67
2023/01/02 14:34:03;;;;;;;;;;;11.70;99.90;;;;;;5054548;28;20015;-67
2023/01/02 14:36:43;;;;;;;;;;;11.60;99.90;;;;;;5054681;28;19908;-67
2023/01/02 14:39:29;;;;;;;;;;;11.70;99.90;;;;;;5088742;28;19916;-67
2023/01/02 14:44:40;;;;;;;;;;;11.60;99.90;;;;;;5092710;28;19957;-67
2023/01/02 14:47:17;;;;;;;;;;;11.60;99.90;;;;;;5075671;28;19919;-67
2023/01/02 14:49:44;;;;;;;;;;;11.70;99.90;;;;;;5072269;28;19955;-67
2023/01/02 14:52:14;;;;;;;;;;;11.70;99.90;;;;;;5073842;28;19915;-67
2023/01/02 14:55:03;;;;;;;;;;;11.70;99.90;;;;;;5078497;28;20464;-67
2023/01/02 14:57:31;;;;;;;;;;;11.70;99.90;;;;;;5064808;28;19915;-67
2023/01/02 14:59:58;;;;;;;;;;;11.60;99.90;;;;;;5072077;28;19916;-67
2023/01/02 15:02:29;;;;;;;;;;;11.60;99.90;;;;;;5069600;28;20329;-67
2023/01/02 15:04:58;;;;;;;;;;;11.60;99.90;;;;;;5091693;28;19998;-67
2023/01/02 15:07:23;;;;;;;;;;;11.70;99.90;;;;;;5072210;28;19912;-67
2023/01/02 15:09:51;;;;;;;;;;;11.60;99.90;;;;;;5086070;28;20376;-68